Time;durP1;ratioP1;P1;durP2;ratioP2;P2;SDS_P1;SDS_P2;PMS_P1;PMS_P2;Temp;Humidity;BMP_temperature;BMP_pressure;BME280_temperature;BME280_humidity;BME280_pressure;Samples;Min_cycle;Max_cycle;Signal;HPM_P1;HPM_P2
2022/06/25 00:02:15;;;;;;;6.32;3.28;;;20.10;99.90;;;;;;4953970;29;20110;-87
2022/06/25 00:07:25;;;;;;;5.70;3.58;;;20.10;99.90;;;;;;4955278;28;20027;-87
2022/06/25 00:09:51;;;;;;;8.55;3.55;;;20.10;99.90;;;;;;4954916;28;20449;-86
2022/06/25 00:12:32;;;;;;;4.72;2.63;;;20.00;99.90;;;;;;4955223;29;20118;-87
2022/06/25 00:15:04;;;;;;;5.32;3.05;;;20.00;99.90;;;;;;4953958;29;20028;-87
2022/06/25 00:17:30;;;;;;;6.10;2.85;;;20.00;99.90;;;;;;4954839;28;20187;-87
2022/06/25 00:19:56;;;;;;;5.22;3.05;;;20.00;99.90;;;;;;4954935;29;20399;-87
2022/06/25 00:22:22;;;;;;;4.50;2.63;;;20.00;99.90;;;;;;4953836;29;20118;-86
2022/06/25 00:24:48;;;;;;;5.25;2.85;;;20.00;99.90;;;;;;4955150;29;20038;-87
2022/06/25 00:27:14;;;;;;;5.72;2.47;;;19.90;99.90;;;;;;4954514;28;20111;-87
2022/06/25 00:29:40;;;;;;;5.28;2.75;;;19.90;99.90;;;;;;4954690;28;20499;-87
2022/06/25 00:32:09;;;;;;;5.22;2.85;;;19.90;99.90;;;;;;4953689;29;20489;-87
2022/06/25 00:34:37;;;;;;;4.90;2.30;;;19.90;99.90;;;;;;4953561;29;20039;-86
2022/06/25 00:37:04;;;;;;;7.35;2.33;;;19.90;99.90;;;;;;4953341;29;20027;-87
2022/06/25 00:39:30;;;;;;;5.28;2.33;;;19.80;99.90;;;;;;4953008;28;20027;-86
2022/06/25 00:41:56;;;;;;;5.05;2.40;;;19.80;99.90;;;;;;4953252;29;20182;-87
2022/06/25 00:44:22;;;;;;;4.63;2.53;;;19.80;99.90;;;;;;4954615;28;20106;-86
2022/06/25 00:46:48;;;;;;;6.68;2.13;;;19.90;99.90;;;;;;4953057;29;20118;-87
2022/06/25 00:49:14;;;;;;;2.92;1.95;;;19.90;99.90;;;;;;4954222;28;20031;-86
2022/06/25 00:51:41;;;;;;;4.60;2.13;;;20.00;99.90;;;;;;4953181;29;20031;-87
2022/06/25 00:54:10;;;;;;;3.38;2.00;;;20.00;99.90;;;;;;4954516;28;20023;-87
2022/06/25 00:56:39;;;;;;;4.55;1.88;;;20.00;99.90;;;;;;4952886;29;20550;-87
2022/06/25 00:59:06;;;;;;;4.03;2.00;;;20.00;99.90;;;;;;4954231;28;20028;-86
2022/06/25 01:01:34;;;;;;;4.38;2.03;;;20.00;99.90;;;;;;4952929;29;20563;-87
2022/06/25 01:04:00;;;;;;;4.47;2.28;;;19.90;99.90;;;;;;4954144;28;20031;-87
2022/06/25 01:06:28;;;;;;;5.32;2.10;;;20.00;99.90;;;;;;4952752;29;20035;-86
2022/06/25 01:08:58;;;;;;;4.32;2.20;;;20.00;99.90;;;;;;4953871;28;20055;-87
2022/06/25 01:11:25;;;;;;;6.28;1.85;;;19.90;99.90;;;;;;4954111;29;20028;-86
2022/06/25 01:13:52;;;;;;;3.97;2.10;;;19.90;99.90;;;;;;4952847;29;20031;-87
2022/06/25 01:16:21;;;;;;;3.22;1.90;;;19.90;99.90;;;;;;4936818;29;20725;-86
2022/06/25 01:18:48;;;;;;;7.07;2.20;;;19.90;99.90;;;;;;4952390;28;20028;-86
2022/06/25 01:21:15;;;;;;;3.97;2.03;;;19.80;99.90;;;;;;4952644;29;20027;-87
2022/06/25 01:23:41;;;;;;;6.25;2.20;;;19.80;99.90;;;;;;4952593;29;20042;-86
2022/06/25 01:26:07;;;;;;;8.05;2.70;;;19.80;99.90;;;;;;4936445;29;20035;-86
2022/06/25 01:28:33;;;;;;;4.55;2.03;;;19.80;99.90;;;;;;4953563;28;20053;-86
2022/06/25 01:30:59;;;;;;;3.58;2.10;;;19.80;99.90;;;;;;4953715;28;20527;-87
2022/06/25 01:33:25;;;;;;;5.07;1.90;;;19.80;99.90;;;;;;4952475;29;20031;-87
2022/06/25 01:35:51;;;;;;;4.50;2.13;;;19.70;99.90;;;;;;4953469;29;20059;-87
2022/06/25 01:38:16;;;;;;;4.70;2.10;;;19.70;99.90;;;;;;4953459;28;20027;-87
2022/06/25 01:40:42;;;;;;;3.65;1.90;;;19.70;99.90;;;;;;4953289;29;20118;-87
2022/06/25 01:43:08;;;;;;;4.72;1.92;;;19.70;99.90;;;;;;4952226;29;20031;-87
2022/06/25 01:45:36;;;;;;;4.18;1.80;;;19.70;99.90;;;;;;4952342;29;20069;-87
2022/06/25 01:48:04;;;;;;;2.75;1.90;;;19.60;99.90;;;;;;4952180;28;20035;-87
2022/06/25 01:50:31;;;;;;;3.67;1.90;;;19.60;99.90;;;;;;4951854;29;20047;-86
2022/06/25 01:52:57;;;;;;;3.40;1.98;;;19.60;99.90;;;;;;4951649;28;20029;-87
2022/06/25 01:55:23;;;;;;;3.92;1.77;;;19.60;99.90;;;;;;4953648;29;20451;-86
2022/06/25 01:57:50;;;;;;;3.30;2.15;;;19.60;99.90;;;;;;4936080;29;20027;-87
2022/06/25 02:00:23;;;;;;;6.38;2.20;;;19.60;99.90;;;;;;4951772;29;20644;-87
2022/06/25 02:03:01;;;;;;;5.80;2.30;;;19.60;99.90;;;;;;4937400;29;20090;-87
2022/06/25 02:08:17;;;;;;;7.40;2.15;;;19.50;99.90;;;;;;4951784;28;20031;-87
2022/06/25 02:10:45;;;;;;;6.68;2.38;;;19.50;99.90;;;;;;4951514;29;20027;-86
2022/06/25 02:13:11;;;;;;;5.05;2.65;;;19.50;99.90;;;;;;4951986;29;20046;-86
2022/06/25 02:15:37;;;;;;;5.13;2.55;;;19.40;99.90;;;;;;4951524;29;20077;-87
2022/06/25 02:18:04;;;;;;;6.07;2.38;;;19.40;99.90;;;;;;4952814;28;20468;-87
2022/06/25 02:20:30;;;;;;;4.93;2.05;;;19.40;99.90;;;;;;4951407;29;20059;-87
2022/06/25 02:22:56;;;;;;;4.68;2.25;;;19.40;99.90;;;;;;4935843;29;20062;-87
2022/06/25 02:25:22;;;;;;;5.28;2.35;;;19.40;99.90;;;;;;4951758;29;20094;-87
2022/06/25 02:27:48;;;;;;;4.95;2.30;;;19.40;99.90;;;;;;4951670;28;20488;-87
2022/06/25 02:30:14;;;;;;;5.35;2.10;;;19.40;99.90;;;;;;4935170;29;20110;-87
2022/06/25 02:32:40;;;;;;;4.75;2.30;;;19.30;99.90;;;;;;4952905;29;20126;-87
2022/06/25 02:35:06;;;;;;;8.85;3.65;;;19.40;99.90;;;;;;4952915;29;20024;-86
2022/06/25 02:37:33;;;;;;;4.35;2.58;;;19.40;99.90;;;;;;4951453;28;20031;-86
2022/06/25 02:39:59;;;;;;;5.72;2.30;;;19.40;99.90;;;;;;4951260;29;20412;-86
2022/06/25 02:42:35;;;;;;;3.97;2.25;;;19.40;99.90;;;;;;4951401;29;20027;-87
2022/06/25 02:45:04;;;;;;;5.43;2.05;;;19.40;99.90;;;;;;4951504;29;20027;-86
2022/06/25 02:47:30;;;;;;;3.70;2.20;;;19.40;99.90;;;;;;4951432;28;20039;-87
2022/06/25 02:50:07;;;;;;;4.82;2.35;;;19.40;99.90;;;;;;4936515;29;20034;-87
2022/06/25 02:52:34;;;;;;;5.30;2.45;;;19.30;99.90;;;;;;4951458;29;20462;-87
2022/06/25 02:55:00;;;;;;;4.32;2.20;;;19.30;99.90;;;;;;4951296;29;20034;-87
2022/06/25 03:00:19;;;;;;;4.30;2.42;;;19.30;99.90;;;;;;4951163;29;20031;-87
2022/06/25 03:02:45;;;;;;;6.30;2.40;;;19.30;99.90;;;;;;4951350;28;20126;-87
2022/06/25 03:05:11;;;;;;;5.50;2.83;;;19.20;99.90;;;;;;4954598;29;20035;-87
2022/06/25 03:07:39;;;;;;;5.72;2.67;;;19.20;99.90;;;;;;4954591;28;20031;-86
2022/06/25 03:10:06;;;;;;;4.88;2.88;;;19.20;99.90;;;;;;4954831;29;20039;-87
2022/06/25 03:12:32;;;;;;;4.60;3.28;;;19.20;99.90;;;;;;4954955;29;20027;-88
2022/06/25 03:15:15;;;;;;;6.05;2.95;;;19.20;99.90;;;;;;4955389;29;20031;-87
2022/06/25 03:20:34;;;;;;;5.93;2.75;;;19.20;99.90;;;;;;4876451;29;20049;-80
2022/06/25 03:23:03;;;;;;;7.75;2.50;;;19.20;99.90;;;;;;4897826;29;20036;-81
2022/06/25 03:25:29;;;;;;;8.32;2.72;;;19.10;99.90;;;;;;4913623;29;20326;-80
2022/06/25 03:27:58;;;;;;;6.95;2.78;;;19.10;99.90;;;;;;4913426;29;20039;-80
2022/06/25 03:30:25;;;;;;;7.55;3.13;;;19.20;99.90;;;;;;4897371;29;20516;-79
2022/06/25 03:32:51;;;;;;;4.47;2.42;;;19.10;99.90;;;;;;4897671;29;20055;-80
2022/06/25 03:35:40;;;;;;;3.65;2.42;;;19.10;99.90;;;;;;4897556;29;20057;-80
2022/06/25 03:38:23;;;;;;;3.50;2.60;;;19.10;99.90;;;;;;4897658;29;20084;-80
2022/06/25 03:41:32;;;;;;;7.50;2.80;;;19.20;99.90;;;;;;4897319;29;20035;-80
2022/06/25 03:43:36;;;;;;;6.05;2.65;;;19.20;99.90;;;;;;4897518;29;20032;-80
2022/06/25 03:46:02;;;;;;;5.10;2.58;;;19.20;99.90;;;;;;4897339;29;20047;-80
2022/06/25 03:48:28;;;;;;;8.85;2.58;;;19.10;99.90;;;;;;4897323;29;20036;-80
2022/06/25 03:51:09;;;;;;;5.28;2.50;;;19.10;99.90;;;;;;4897284;29;20032;-80
2022/06/25 03:53:36;;;;;;;4.93;2.33;;;19.20;99.90;;;;;;4897184;29;20032;-80
2022/06/25 03:56:02;;;;;;;4.20;2.65;;;19.10;99.90;;;;;;4897205;29;20036;-81
2022/06/25 03:58:35;;;;;;;4.82;2.40;;;19.20;99.90;;;;;;4897131;29;20401;-81
2022/06/25 04:01:01;;;;;;;3.90;2.65;;;19.10;99.90;;;;;;4897138;29;20036;-81
2022/06/25 04:03:26;;;;;;;5.55;2.58;;;19.10;99.90;;;;;;4897092;29;20032;-80
2022/06/25 04:06:00;;;;;;;2.72;2.35;;;19.10;99.90;;;;;;4896850;29;20405;-80
2022/06/25 04:08:38;;;;;;;5.43;2.47;;;19.10;99.90;;;;;;4896754;29;20502;-80
2022/06/25 04:11:07;;;;;;;5.18;2.40;;;19.10;99.90;;;;;;4881640;29;20504;-81
2022/06/25 04:13:38;;;;;;;5.00;2.88;;;19.10;99.90;;;;;;4896953;29;20084;-81
2022/06/25 04:16:04;;;;;;;6.25;2.72;;;19.10;99.90;;;;;;4896163;29;20554;-81
2022/06/25 04:18:31;;;;;;;4.70;2.72;;;19.10;99.90;;;;;;4896471;29;20486;-81
2022/06/25 04:20:58;;;;;;;4.82;2.78;;;19.10;99.90;;;;;;4896723;29;20714;-81
2022/06/25 04:23:24;;;;;;;5.55;2.50;;;19.20;99.90;;;;;;4896657;29;20083;-81
2022/06/25 04:25:51;;;;;;;5.50;2.60;;;19.20;99.90;;;;;;4896686;29;20028;-81
2022/06/25 04:31:12;;;;;;;8.52;2.70;;;19.20;99.90;;;;;;4896405;29;20124;-81
2022/06/25 04:33:37;;;;;;;5.40;2.63;;;19.20;99.90;;;;;;4896553;29;20115;-81
2022/06/25 04:36:07;;;;;;;7.15;2.60;;;19.20;99.90;;;;;;4896319;29;20442;-81
2022/06/25 04:38:46;;;;;;;7.30;2.60;;;19.20;99.90;;;;;;4896328;29;20033;-81
2022/06/25 04:41:12;;;;;;;4.97;2.50;;;19.30;99.90;;;;;;4896414;29;20088;-81
2022/06/25 04:43:38;;;;;;;3.03;2.30;;;19.30;99.90;;;;;;4896347;29;20060;-81
2022/06/25 04:46:10;;;;;;;5.10;2.60;;;19.30;99.90;;;;;;4896122;29;20035;-81
2022/06/25 04:48:39;;;;;;;4.88;2.40;;;19.40;99.90;;;;;;4896109;29;20501;-80
2022/06/25 04:51:13;;;;;;;5.38;2.70;;;19.40;99.90;;;;;;4897376;29;20040;-81
2022/06/25 04:53:55;;;;;;;3.90;2.42;;;19.40;99.90;;;;;;4896281;29;20060;-81
2022/06/25 04:56:28;;;;;;;6.28;2.58;;;19.50;99.90;;;;;;4896281;29;20055;-81
2022/06/25 04:58:57;;;;;;;4.60;2.17;;;19.50;99.90;;;;;;4895906;29;20025;-80
2022/06/25 05:01:49;;;;;;;4.07;2.50;;;19.50;99.90;;;;;;4896956;29;20032;-81
2022/06/25 05:04:14;;;;;;;4.95;2.38;;;19.60;99.90;;;;;;4896286;29;20041;-81
2022/06/25 05:06:41;;;;;;;3.33;2.15;;;19.60;99.90;;;;;;4895708;29;20506;-80
2022/06/25 05:09:07;;;;;;;8.90;3.00;;;19.60;99.90;;;;;;4895760;29;20462;-80
2022/06/25 05:11:34;;;;;;;4.78;2.47;;;19.60;99.90;;;;;;4895760;29;20043;-80
2022/06/25 05:14:01;;;;;;;3.53;2.15;;;19.70;99.90;;;;;;4895914;29;20087;-81
2022/06/25 05:16:26;;;;;;;4.82;2.50;;;19.70;99.90;;;;;;4895628;29;20576;-80
2022/06/25 05:18:55;;;;;;;;;;;19.70;99.90;;;;;;4895967;29;20092;-81
2022/06/25 05:21:21;;;;;;;5.47;2.53;;;19.80;99.90;;;;;;4895858;29;19912;-81
2022/06/25 05:23:47;;;;;;;5.00;2.40;;;19.80;99.90;;;;;;4895850;29;20052;-81
2022/06/25 05:26:13;;;;;;;6.65;3.17;;;19.80;99.90;;;;;;4895963;29;20437;-80
2022/06/25 05:28:40;;;;;;;7.18;2.88;;;19.90;99.90;;;;;;4895383;29;20032;-81
2022/06/25 05:31:07;;;;;;;5.22;2.63;;;19.90;99.90;;;;;;4895527;29;20032;-81
2022/06/25 05:33:33;;;;;;;5.60;2.33;;;20.00;99.90;;;;;;4895615;29;20029;-81
2022/06/25 05:35:59;;;;;;;4.85;2.42;;;20.00;99.90;;;;;;4895326;29;20029;-81
2022/06/25 05:38:25;;;;;;;5.15;2.42;;;20.10;99.90;;;;;;4896720;29;20397;-81
2022/06/25 05:40:51;;;;;;;4.38;2.58;;;20.10;99.90;;;;;;4895233;29;20041;-81
2022/06/25 05:43:16;;;;;;;5.82;2.38;;;20.10;99.90;;;;;;4896831;29;20044;-80
2022/06/25 05:45:42;;;;;;;3.45;2.30;;;20.20;99.90;;;;;;4896863;29;20120;-81
2022/06/25 05:48:08;;;;;;;5.40;2.45;;;20.20;99.90;;;;;;4896969;29;20037;-81
2022/06/25 05:50:34;;;;;;;3.83;2.20;;;20.20;99.90;;;;;;4896243;29;20080;-81
2022/06/25 05:53:00;;;;;;;8.40;3.08;;;20.30;99.90;;;;;;4896642;29;20434;-81
2022/06/25 05:55:26;;;;;;;4.13;2.78;;;20.30;99.90;;;;;;4896649;29;20029;-81
2022/06/25 05:57:52;;;;;;;5.95;2.35;;;20.30;99.90;;;;;;4879405;29;20053;-81
2022/06/25 06:00:18;;;;;;;4.53;2.28;;;20.30;99.90;;;;;;4895077;29;20094;-81
2022/06/25 06:02:44;;;;;;;7.53;2.45;;;20.30;99.90;;;;;;4896426;29;20036;-81
2022/06/25 06:05:10;;;;;;;7.82;2.67;;;20.40;99.90;;;;;;4895116;29;20552;-81
2022/06/25 06:07:36;;;;;;;4.15;2.25;;;20.40;99.90;;;;;;4894840;29;20461;-81
2022/06/25 06:10:03;;;;;;;5.40;2.47;;;20.40;99.90;;;;;;4894826;29;20119;-81
2022/06/25 06:12:29;;;;;;;4.18;2.13;;;20.50;99.90;;;;;;4896358;29;20032;-81
2022/06/25 06:14:55;;;;;;;3.75;2.00;;;20.50;99.90;;;;;;4896470;29;20033;-81
2022/06/25 06:17:21;;;;;;;5.07;2.10;;;20.50;99.90;;;;;;4896015;29;20035;-81
2022/06/25 06:19:47;;;;;;;4.22;2.20;;;20.60;99.90;;;;;;4894707;29;20093;-81
2022/06/25 06:22:12;;;;;;;5.40;2.10;;;20.60;99.90;;;;;;4896548;29;20481;-81
2022/06/25 06:24:38;;;;;;;4.28;2.10;;;20.60;99.90;;;;;;4896439;29;20116;-81
2022/06/25 06:27:04;;;;;;;5.38;2.33;;;20.60;99.90;;;;;;4895014;29;20037;-81
2022/06/25 06:29:30;;;;;;;6.47;2.15;;;20.70;99.90;;;;;;4896056;29;20044;-81
2022/06/25 06:31:56;;;;;;;5.70;2.10;;;20.70;99.90;;;;;;4896217;29;20033;-81
2022/06/25 06:34:22;;;;;;;5.03;2.60;;;20.80;99.90;;;;;;4896192;29;20469;-81
2022/06/25 06:36:47;;;;;;;5.57;2.00;;;20.80;99.90;;;;;;4896104;29;20040;-79
2022/06/25 06:39:13;;;;;;;5.03;2.30;;;20.80;99.90;;;;;;4894341;29;20043;-77
2022/06/25 06:41:39;;;;;;;5.30;2.17;;;20.80;99.90;;;;;;4896011;29;20419;-79
2022/06/25 06:44:05;;;;;;;5.20;2.15;;;20.80;99.90;;;;;;4894844;29;20032;-79
2022/06/25 06:46:31;;;;;;;5.78;1.98;;;20.90;99.90;;;;;;4895662;29;20029;-79
2022/06/25 06:48:56;;;;;;;7.35;1.90;;;20.90;99.90;;;;;;4895835;29;20565;-79
2022/06/25 06:51:22;;;;;;;5.75;1.90;;;20.90;99.90;;;;;;4895962;29;20037;-79
2022/06/25 06:53:48;;;;;;;5.43;1.63;;;20.90;99.90;;;;;;4895974;29;20397;-80
2022/06/25 06:56:13;;;;;;;4.18;1.90;;;20.90;99.90;;;;;;4895658;29;20486;-79
2022/06/25 06:58:39;;;;;;;3.83;1.60;;;21.00;99.90;;;;;;4895567;29;20040;-79
2022/06/25 07:01:05;;;;;;;5.13;2.08;;;21.00;99.90;;;;;;4895585;29;20043;-80
2022/06/25 07:03:30;;;;;;;4.40;1.75;;;21.00;99.90;;;;;;4895830;29;20042;-79
2022/06/25 07:05:56;;;;;;;6.32;2.15;;;21.00;99.90;;;;;;4894440;29;20032;-79
2022/06/25 07:08:22;;;;;;;7.00;2.10;;;21.10;99.90;;;;;;4895595;29;20040;-79
2022/06/25 07:10:48;;;;;;;4.28;1.55;;;21.10;99.90;;;;;;4895443;29;20119;-79
2022/06/25 07:13:14;;;;;;;2.72;1.80;;;21.10;99.90;;;;;;4895930;29;20446;-80
2022/06/25 07:15:40;;;;;;;5.88;2.35;;;21.10;99.90;;;;;;4895938;29;20021;-80
2022/06/25 07:18:06;;;;;;;6.13;2.70;;;21.10;99.90;;;;;;4895362;29;20029;-81
2022/06/25 07:20:32;;;;;;;5.32;2.30;;;21.10;99.90;;;;;;4895285;29;20486;-80
2022/06/25 07:22:58;;;;;;;8.32;2.35;;;21.10;99.90;;;;;;4895674;29;20033;-80
2022/06/25 07:25:23;;;;;;;5.03;2.30;;;21.20;99.90;;;;;;4895675;29;20037;-81
2022/06/25 07:27:49;;;;;;;5.10;2.00;;;21.20;99.90;;;;;;4895379;29;20120;-81
2022/06/25 07:30:15;;;;;;;3.03;1.73;;;21.20;99.90;;;;;;4895214;29;20032;-80
2022/06/25 07:32:41;;;;;;;3.90;1.80;;;21.20;99.90;;;;;;4895584;29;20344;-81
2022/06/25 07:35:07;;;;;;;5.78;2.30;;;21.30;99.90;;;;;;4895567;29;20025;-81
2022/06/25 07:37:33;;;;;;;9.38;2.70;;;21.30;99.90;;;;;;4895309;29;20032;-81
2022/06/25 07:39:59;;;;;;;6.38;1.95;;;21.30;99.90;;;;;;4895470;29;20037;-81
2022/06/25 07:42:25;;;;;;;7.95;2.10;;;21.30;99.90;;;;;;4895466;29;20421;-81
2022/06/25 07:44:50;;;;;;;5.80;1.98;;;21.30;99.90;;;;;;4895324;29;20111;-81
2022/06/25 07:47:16;;;;;;;5.00;1.90;;;21.40;99.90;;;;;;4894063;29;20124;-80
2022/06/25 07:52:26;;;;;;;3.28;1.90;;;21.40;99.90;;;;;;4898907;29;20033;-80
2022/06/25 07:54:52;;;;;;;5.10;2.45;;;21.40;99.90;;;;;;4898726;29;20035;-80
2022/06/25 07:57:18;;;;;;;6.13;2.25;;;21.50;99.90;;;;;;4897026;29;20025;-81
2022/06/25 07:59:43;;;;;;;3.22;1.75;;;21.50;99.90;;;;;;4898228;29;20028;-81
2022/06/25 08:02:09;;;;;;;7.75;2.15;;;21.60;99.90;;;;;;4898411;29;20473;-81
2022/06/25 08:04:35;;;;;;;5.20;2.72;;;21.60;99.90;;;;;;4898264;29;20096;-81
2022/06/25 08:07:01;;;;;;;3.42;1.95;;;21.60;99.90;;;;;;4897000;29;20036;-80
2022/06/25 08:09:26;;;;;;;5.68;1.90;;;21.70;99.90;;;;;;4898302;29;20281;-81
2022/06/25 08:11:52;;;;;;;3.28;1.63;;;21.70;99.90;;;;;;4898220;29;20032;-81
2022/06/25 08:14:18;;;;;;;3.25;1.50;;;21.70;99.90;;;;;;4898699;29;20032;-81
2022/06/25 08:16:44;;;;;;;4.60;1.77;;;21.70;99.90;;;;;;4897933;29;20509;-80
2022/06/25 08:19:09;;;;;;;3.75;1.50;;;21.70;99.90;;;;;;4897768;29;20088;-80
2022/06/25 08:21:35;;;;;;;6.43;1.67;;;21.80;99.90;;;;;;4897938;29;20036;-81
2022/06/25 08:24:01;;;;;;;3.70;1.50;;;21.80;99.90;;;;;;4897953;29;20029;-81
2022/06/25 08:26:27;;;;;;;3.65;1.80;;;21.80;99.90;;;;;;4897752;29;20510;-81
2022/06/25 08:28:54;;;;;;;3.35;1.50;;;21.80;99.90;;;;;;4897965;29;20139;-81
2022/06/25 08:31:19;;;;;;;3.17;1.85;;;21.90;99.90;;;;;;4897970;29;20485;-81
2022/06/25 08:33:45;;;;;;;5.32;1.60;;;21.90;99.90;;;;;;4896763;29;20040;-81
2022/06/25 08:36:11;;;;;;;4.88;1.35;;;21.90;99.30;;;;;;4897757;29;20033;-80
2022/06/25 08:38:37;;;;;;;4.38;1.30;;;21.90;98.60;;;;;;4897995;29;20414;-80
2022/06/25 08:41:03;;;;;;;2.65;1.10;;;22.00;98.70;;;;;;4897642;29;20112;-80
2022/06/25 08:43:29;;;;;;;3.90;1.50;;;22.00;99.00;;;;;;4897640;29;20064;-80
2022/06/25 08:45:55;;;;;;;7.68;2.22;;;22.10;99.30;;;;;;4897477;29;20040;-80
2022/06/25 08:48:23;;;;;;;3.13;1.63;;;22.20;99.30;;;;;;4897575;29;20084;-80
2022/06/25 08:50:50;;;;;;;6.97;1.70;;;22.30;98.90;;;;;;4897351;29;20430;-80
2022/06/25 08:53:16;;;;;;;4.97;1.60;;;22.30;98.30;;;;;;4897589;29;20633;-81
2022/06/25 08:55:44;;;;;;;4.95;2.03;;;22.40;98.00;;;;;;4897247;29;20025;-80
2022/06/25 08:58:11;;;;;;;4.50;1.60;;;22.50;98.00;;;;;;4897711;29;20029;-81
2022/06/25 09:00:40;;;;;;;5.70;1.42;;;22.50;97.60;;;;;;4897125;29;20029;-81
2022/06/25 09:03:08;;;;;;;2.95;1.30;;;22.50;97.20;;;;;;4896073;29;20064;-81
2022/06/25 09:05:42;;;;;;;6.60;1.60;;;22.60;97.10;;;;;;4897297;29;20030;-80
2022/06/25 09:08:11;;;;;;;5.80;1.60;;;22.60;96.80;;;;;;4897158;29;20537;-81
2022/06/25 09:10:38;;;;;;;4.68;1.20;;;22.60;96.60;;;;;;4897283;29;20033;-81
2022/06/25 09:13:06;;;;;;;3.33;1.15;;;22.60;96.80;;;;;;4895965;29;20429;-81
2022/06/25 09:15:44;;;;;;;4.43;1.58;;;22.60;96.40;;;;;;4895798;29;20039;-81
2022/06/25 09:21:08;;;;;;;1.88;0.93;;;22.70;96.00;;;;;;4933278;29;20058;-78
2022/06/25 09:23:37;;;;;;;5.55;1.15;;;22.70;96.20;;;;;;4933496;29;20104;-78
2022/06/25 09:26:07;;;;;;;2.67;1.38;;;22.80;95.90;;;;;;4934569;29;20182;-79
2022/06/25 09:28:46;;;;;;;3.55;1.27;;;22.80;95.90;;;;;;4931117;29;20031;-79
2022/06/25 09:31:32;;;;;;;3.20;0.93;;;22.80;95.60;;;;;;4915462;29;20035;-78
2022/06/25 09:34:02;;;;;;;6.07;1.48;;;22.80;94.90;;;;;;4915845;29;20421;-78
2022/06/25 09:36:28;;;;;;;2.95;1.35;;;22.80;94.80;;;;;;4915694;29;20036;-78
2022/06/25 09:38:54;;;;;;;4.40;1.50;;;22.80;95.00;;;;;;4915311;29;20103;-77
2022/06/25 09:41:23;;;;;;;3.60;1.40;;;22.90;95.00;;;;;;4915471;29;20028;-77
2022/06/25 09:43:51;;;;;;;3.00;1.05;;;22.90;95.40;;;;;;4915861;29;20374;-77
2022/06/25 09:46:17;;;;;;;3.60;1.33;;;23.00;94.60;;;;;;4915203;29;20168;-78
2022/06/25 09:48:43;;;;;;;4.80;1.58;;;23.00;94.40;;;;;;4915246;29;20040;-78
2022/06/25 09:51:13;;;;;;;2.95;1.20;;;23.10;93.60;;;;;;4915175;29;20036;-80
2022/06/25 09:53:48;;;;;;;4.82;1.42;;;23.20;93.40;;;;;;4915378;29;20465;-77
2022/06/25 09:56:19;;;;;;;4.15;1.33;;;23.10;93.30;;;;;;4914976;29;20043;-78
2022/06/25 09:58:47;;;;;;;3.10;1.20;;;23.20;93.40;;;;;;4915103;29;20028;-78
2022/06/25 10:01:16;;;;;;;5.50;1.53;;;23.10;93.30;;;;;;4915103;29;20485;-78
2022/06/25 10:03:43;;;;;;;4.10;1.40;;;23.10;93.50;;;;;;4915093;29;20047;-77
2022/06/25 10:06:09;;;;;;;5.20;1.58;;;23.10;93.70;;;;;;4914931;29;20032;-77
2022/06/25 10:08:35;;;;;;;4.57;1.48;;;23.10;93.40;;;;;;4914751;29;20032;-77
2022/06/25 10:11:04;;;;;;;2.58;0.95;;;23.10;93.30;;;;;;4914944;29;20473;-78
2022/06/25 10:13:30;;;;;;;6.30;1.50;;;23.10;92.80;;;;;;4914645;29;20070;-77
2022/06/25 10:15:56;;;;;;;3.42;1.30;;;23.10;93.10;;;;;;4914773;29;20076;-77
2022/06/25 10:18:24;;;;;;;4.72;1.52;;;23.20;93.30;;;;;;4914862;29;20477;-78
2022/06/25 10:20:51;;;;;;;2.75;1.20;;;23.20;93.30;;;;;;4914591;29;20036;-78
2022/06/25 10:23:20;;;;;;;4.53;1.70;;;23.30;92.90;;;;;;4914720;29;20036;-78
2022/06/25 10:25:45;;;;;;;;;;;23.40;92.50;;;;;;4915008;29;20044;-78
2022/06/25 10:28:13;;;;;;;8.57;2.00;;;23.50;92.00;;;;;;4914668;29;19935;-78
2022/06/25 10:30:43;;;;;;;3.45;1.10;;;23.60;91.40;;;;;;4914440;29;20067;-78
2022/06/25 10:33:09;;;;;;;3.53;1.27;;;23.70;91.50;;;;;;4914814;29;20092;-77
2022/06/25 10:35:37;;;;;;;4.85;1.90;;;23.60;91.60;;;;;;4914577;29;20036;-78
2022/06/25 10:38:12;;;;;;;4.50;1.65;;;23.70;92.30;;;;;;4914596;29;20059;-78
2022/06/25 10:40:56;;;;;;;3.85;1.60;;;23.70;92.40;;;;;;4914408;29;20048;-78
2022/06/25 10:43:35;;;;;;;3.35;1.20;;;23.80;92.30;;;;;;4914694;29;20032;-78
2022/06/25 10:46:41;;;;;;;4.25;1.45;;;23.70;92.10;;;;;;4914490;29;20036;-78
2022/06/25 10:49:13;;;;;;;4.22;1.40;;;23.70;92.20;;;;;;4914421;29;20103;-78
2022/06/25 10:51:38;;;;;;;4.72;1.20;;;23.60;92.00;;;;;;4914431;29;20043;-78
2022/06/25 10:54:10;;;;;;;3.92;1.58;;;23.60;92.10;;;;;;4914734;29;20269;-78
2022/06/25 10:56:47;;;;;;;3.40;1.80;;;23.50;92.30;;;;;;4914404;29;20043;-79
2022/06/25 10:59:55;;;;;;;3.70;1.77;;;23.50;92.30;;;;;;4914411;29;20095;-78
2022/06/25 11:02:23;;;;;;;4.95;2.00;;;23.40;92.70;;;;;;4914213;29;20048;-78
2022/06/25 11:04:54;;;;;;;2.28;1.38;;;23.40;92.90;;;;;;4914339;29;20032;-78
2022/06/25 11:07:22;;;;;;;5.13;1.98;;;23.40;93.20;;;;;;4914327;29;20040;-79
2022/06/25 11:10:02;;;;;;;4.95;1.92;;;23.40;93.30;;;;;;4914276;29;20032;-78
2022/06/25 11:12:30;;;;;;;3.67;1.70;;;23.30;93.30;;;;;;4914522;29;20079;-79
2022/06/25 11:15:04;;;;;;;3.83;1.58;;;23.30;93.40;;;;;;4914454;29;20366;-79
2022/06/25 11:17:30;;;;;;;4.55;1.60;;;23.40;93.00;;;;;;4914238;29;20034;-79
2022/06/25 11:20:11;;;;;;;4.10;1.80;;;23.40;93.20;;;;;;4914120;29;20203;-78
2022/06/25 11:22:51;;;;;;;4.38;1.55;;;23.40;93.10;;;;;;4914305;29;20051;-78
2022/06/25 11:30:50;;;;;;;4.28;1.63;;;23.40;93.10;;;;;;4917756;29;20036;-78
2022/06/25 11:33:16;;;;;;;3.72;1.42;;;23.30;93.20;;;;;;4918197;29;20104;-78
2022/06/25 11:35:44;;;;;;;4.18;1.70;;;23.30;93.40;;;;;;4917690;29;20032;-77
2022/06/25 11:38:16;;;;;;;4.18;1.70;;;23.30;93.60;;;;;;4917943;29;20473;-78
2022/06/25 11:40:42;;;;;;;3.90;2.00;;;23.30;93.20;;;;;;4932256;29;20059;-78
2022/06/25 11:43:09;;;;;;;4.35;1.60;;;23.30;93.20;;;;;;4917610;29;20032;-78
2022/06/25 11:45:52;;;;;;;4.47;1.58;;;23.40;93.20;;;;;;4917635;29;20036;-77
2022/06/25 11:48:17;;;;;;;4.20;1.88;;;23.40;92.90;;;;;;4917556;29;20152;-78
2022/06/25 11:50:43;;;;;;;4.00;1.70;;;23.40;92.80;;;;;;4916957;29;20128;-77
2022/06/25 11:53:10;;;;;;;9.32;6.72;;;23.50;92.90;;;;;;4916066;29;20032;-78
2022/06/25 11:55:38;;;;;;;22.13;15.13;;;23.50;92.80;;;;;;4931987;29;20035;-77
2022/06/25 11:58:04;;;;;;;10.52;7.50;;;23.60;93.20;;;;;;4917459;29;20032;-78
2022/06/25 12:00:30;;;;;;;5.90;3.25;;;23.60;92.70;;;;;;4917023;29;20032;-78
2022/06/25 12:03:05;;;;;;;5.10;2.60;;;23.60;92.30;;;;;;4917253;29;20068;-78
2022/06/25 12:05:34;;;;;;;6.07;3.30;;;23.70;92.30;;;;;;4917165;29;20076;-78
2022/06/25 12:08:00;;;;;;;4.05;2.50;;;23.70;92.60;;;;;;4917114;29;20040;-78
2022/06/25 12:10:29;;;;;;;3.28;1.77;;;23.70;92.70;;;;;;4916778;29;20032;-78
2022/06/25 12:12:54;;;;;;;3.13;1.55;;;23.80;92.10;;;;;;4917148;29;20033;-78
2022/06/25 12:15:29;;;;;;;4.63;1.90;;;23.80;92.10;;;;;;4917196;29;20320;-78
2022/06/25 12:18:05;;;;;;;3.72;1.75;;;23.80;92.10;;;;;;4931454;29;20108;-78
2022/06/25 12:20:31;;;;;;;4.32;1.48;;;23.90;92.00;;;;;;4915440;29;20493;-78
2022/06/25 12:22:58;;;;;;;2.22;1.33;;;24.00;91.70;;;;;;4917177;29;20040;-78
2022/06/25 12:25:25;;;;;;;5.25;1.50;;;24.00;91.40;;;;;;4916867;29;20055;-78
2022/06/25 12:27:51;;;;;;;3.67;1.40;;;24.00;91.50;;;;;;4916633;29;20087;-77
2022/06/25 12:30:25;;;;;;;3.70;1.83;;;24.10;91.50;;;;;;4916467;29;20357;-78
2022/06/25 12:32:53;;;;;;;6.28;2.22;;;24.10;91.40;;;;;;4916860;29;20424;-78
2022/06/25 12:35:20;;;;;;;3.78;1.35;;;24.10;91.40;;;;;;4916378;29;20050;-78
2022/06/25 12:38:09;;;;;;;4.88;1.40;;;24.20;91.30;;;;;;4916513;29;20035;-78
2022/06/25 12:40:46;;;;;;;4.30;1.52;;;24.20;90.90;;;;;;4915220;29;20040;-78
2022/06/25 12:43:14;;;;;;;3.40;1.58;;;24.20;91.20;;;;;;4915405;29;20490;-78
2022/06/25 12:45:45;;;;;;;3.53;1.90;;;24.30;91.80;;;;;;4916453;29;20094;-78
2022/06/25 12:48:11;;;;;;;4.35;1.60;;;24.50;92.20;;;;;;4916517;29;20116;-78
2022/06/25 12:50:39;;;;;;;3.60;1.60;;;24.80;92.30;;;;;;4916135;29;20044;-78
2022/06/25 12:53:11;;;;;;;2.97;1.52;;;24.80;92.30;;;;;;4915294;29;20049;-78
2022/06/25 12:55:38;;;;;;;8.13;2.78;;;25.00;92.50;;;;;;4914915;29;20028;-79
2022/06/25 12:58:09;;;;;;;5.82;1.73;;;25.10;92.10;;;;;;4916555;29;20032;-78
2022/06/25 13:00:37;;;;;;;3.83;1.70;;;25.10;91.60;;;;;;4916360;29;20128;-78
2022/06/25 13:03:05;;;;;;;2.55;1.40;;;25.00;90.70;;;;;;4915182;29;20039;-78
2022/06/25 13:05:31;;;;;;;3.28;1.60;;;24.90;90.60;;;;;;4916270;29;20036;-78
2022/06/25 13:07:57;;;;;;;4.03;1.70;;;24.80;90.50;;;;;;4915851;29;20087;-78
2022/06/25 13:10:23;;;;;;;3.58;1.83;;;24.70;90.80;;;;;;4915951;29;20401;-78
2022/06/25 13:12:53;;;;;;;3.83;1.70;;;24.70;90.90;;;;;;4916027;29;20032;-78
2022/06/25 13:15:20;;;;;;;3.83;1.90;;;24.70;91.20;;;;;;4916040;29;20032;-78
2022/06/25 13:17:46;;;;;;;3.40;1.50;;;24.60;91.20;;;;;;4915747;29;20040;-78
2022/06/25 13:20:13;;;;;;;7.68;1.40;;;24.70;91.00;;;;;;4915526;29;20040;-78